Time;durP1;ratioP1;P1;durP2;ratioP2;P2;SDS_P1;SDS_P2;PMS_P1;PMS_P2;Temp;Humidity;BMP_temperature;BMP_pressure;BME280_temperature;BME280_humidity;BME280_pressure;Samples;Min_cycle;Max_cycle;Signal;HPM_P1;HPM_P2
2021/01/23 00:01:07;;;;;;;61.40;40.27;;;;;;;2.82;76.63;100612.84;4921086;29;20102;-73
2021/01/23 00:03:32;;;;;;;63.77;40.90;;;;;;;2.38;76.94;100526.47;4930648;29;20470;-74
2021/01/23 00:05:57;;;;;;;70.67;43.17;;;;;;;2.92;77.05;100607.59;4931661;29;20051;-73
2021/01/23 00:08:23;;;;;;;62.13;39.53;;;;;;;2.80;76.08;100562.53;4933242;29;20536;-71
2021/01/23 00:10:48;;;;;;;59.50;39.53;;;;;;;2.89;75.37;100587.00;4932909;29;20074;-74
2021/01/23 00:13:14;;;;;;;61.80;40.33;;;;;;;2.96;75.55;100605.28;4948224;28;20490;-73
2021/01/23 00:15:39;;;;;;;298.83;125.80;;;;;;;2.89;75.71;100570.78;4927277;29;20036;-71
2021/01/23 00:18:05;;;;;;;79.03;47.87;;;;;;;2.92;75.78;100594.84;4965234;28;20095;-70
2021/01/23 00:20:31;;;;;;;63.53;41.13;;;;;;;3.05;75.94;100594.06;4933224;29;20060;-72
2021/01/23 00:22:56;;;;;;;62.10;39.80;;;;;;;2.95;74.66;100576.31;4933175;29;20032;-72
2021/01/23 00:25:21;;;;;;;58.57;37.87;;;;;;;2.88;75.76;100592.88;4933004;29;20028;-72
2021/01/23 00:27:47;;;;;;;57.27;37.43;;;;;;;2.89;75.58;100575.91;4932850;29;20032;-75
2021/01/23 00:30:13;;;;;;;53.30;35.97;;;;;;;2.80;74.80;100580.38;4933311;29;20028;-72
2021/01/23 00:32:38;;;;;;;61.80;40.60;;;;;;;2.53;76.45;100567.44;4933032;29;20115;-73
2021/01/23 00:35:04;;;;;;;61.10;39.23;;;;;;;2.56;76.54;100582.97;4947687;28;20042;-73
2021/01/23 00:37:30;;;;;;;70.40;43.17;;;;;;;2.60;76.13;100600.25;4933568;29;20048;-72
2021/01/23 00:39:55;;;;;;;65.10;40.33;;;;;;;2.43;76.98;100604.16;4932681;29;20039;-74
2021/01/23 00:42:21;;;;;;;65.53;42.03;;;;;;;2.20;77.64;100590.63;4947612;28;20039;-76
2021/01/23 00:44:46;;;;;;;73.53;44.33;;;;;;;2.22;78.23;100603.50;4933104;29;20031;-75
2021/01/23 00:47:12;;;;;;;67.77;43.73;;;;;;;2.24;77.40;100584.09;4933051;29;20052;-73
2021/01/23 00:49:37;;;;;;;67.33;43.10;;;;;;;2.30;77.01;100586.22;4932698;29;20032;-75
2021/01/23 00:52:03;;;;;;;75.20;46.70;;;;;;;2.34;76.84;100586.53;4932818;29;20028;-72
2021/01/23 00:54:28;;;;;;;90.20;51.73;;;;;;;2.18;77.42;100581.09;4932805;29;20024;-71
2021/01/23 00:56:53;;;;;;;91.63;50.77;;;;;;;2.24;77.97;100581.53;4935718;29;20066;-75
2021/01/23 00:59:19;;;;;;;111.00;59.10;;;;;;;2.09;77.45;100535.47;4936548;28;20031;-74
2021/01/23 01:01:44;;;;;;;107.37;58.50;;;;;;;2.22;76.30;100560.19;4936687;29;20027;-73
2021/01/23 01:04:10;;;;;;;106.53;58.07;;;;;;;2.39;76.67;100561.38;4936659;29;20032;-71
2021/01/23 01:06:35;;;;;;;154.87;70.53;;;;;;;2.35;76.86;100569.59;4936051;29;20040;-73
2021/01/23 01:09:01;;;;;;;184.57;84.67;;;;;;;2.26;77.16;100549.44;4939427;29;20089;-73
2021/01/23 01:11:26;;;;;;;158.93;80.63;;;;;;;2.29;77.21;100552.19;4935988;29;20059;-73
2021/01/23 01:13:55;;;;;;;106.73;58.00;;;;;;;2.28;75.77;100550.44;4936633;29;20024;-70
2021/01/23 01:16:20;;;;;;;84.43;50.43;;;;;;;2.19;75.90;100555.72;4969451;28;20023;-70
2021/01/23 01:18:45;;;;;;;67.80;44.00;;;;;;;1.89;77.38;100523.88;4956633;28;20019;-71
2021/01/23 01:21:11;;;;;;;66.63;44.80;;;;;;;2.11;78.08;100561.97;4956456;28;20023;-71
2021/01/23 01:23:36;;;;;;;103.40;63.37;;;;;;;2.18;78.00;100560.72;4946503;28;20039;-73
2021/01/23 01:26:02;;;;;;;146.07;79.27;;;;;;;2.23;77.54;100572.13;4936629;29;20028;-74
2021/01/23 01:28:27;;;;;;;154.40;83.30;;;;;;;2.32;77.31;100560.06;4936827;29;20054;-72
2021/01/23 01:30:53;;;;;;;136.17;74.03;;;;;;;2.39;77.20;100562.28;4944379;29;20397;-72
2021/01/23 01:33:18;;;;;;;116.67;67.93;;;;;;;2.44;76.33;100542.19;4944472;29;20020;-76
2021/01/23 01:35:44;;;;;;;98.13;57.93;;;;;;;2.53;75.87;100554.69;4937240;29;20036;-72
2021/01/23 01:38:09;;;;;;;86.77;53.57;;;;;;;2.48;75.73;100546.75;4937306;29;20458;-73
2021/01/23 01:40:35;;;;;;;83.80;53.33;;;;;;;2.52;75.60;100541.09;4936789;29;20024;-73
2021/01/23 01:43:00;;;;;;;76.50;51.07;;;;;;;2.61;75.05;100535.75;4937181;29;20087;-75
2021/01/23 01:45:26;;;;;;;71.70;46.93;;;;;;;2.61;74.72;100524.69;4937126;29;20469;-72
2021/01/23 01:47:52;;;;;;;69.37;44.80;;;;;;;2.50;74.72;100506.09;4952878;29;20039;-72
2021/01/23 01:50:17;;;;;;;61.63;40.83;;;;;;;2.31;74.77;100484.41;4956132;28;20086;-73
2021/01/23 01:52:43;;;;;;;64.33;41.40;;;;;;;2.08;76.13;100539.72;4956078;28;20035;-71
2021/01/23 01:55:13;;;;;;;61.40;39.80;;;;;;;1.97;76.09;100526.97;4955796;28;20043;-71
2021/01/23 01:57:39;;;;;;;66.03;40.77;;;;;;;1.70;76.95;100517.44;4955751;28;20039;-73
2021/01/23 02:00:06;;;;;;;63.10;42.03;;;;;;;1.82;77.75;100534.38;4936269;29;20501;-74
2021/01/23 02:03:06;;;;;;;58.50;39.80;;;;;;;1.82;77.74;100524.19;4935126;28;20111;-76
2021/01/23 02:05:42;;;;;;;59.92;39.47;;;;;;;1.81;78.74;100519.88;4925847;29;20507;-73
2021/01/23 02:08:28;;;;;;;62.50;37.40;;;;;;;1.89;78.44;100513.69;4934995;29;20034;-77
2021/01/23 02:11:16;;;;;;;58.63;37.20;;;;;;;1.60;79.69;100515.88;4936239;29;20090;-75
2021/01/23 02:13:50;;;;;;;59.90;39.37;;;;;;;1.71;79.35;100496.31;4923181;29;20035;-75
2021/01/23 02:16:26;;;;;;;55.47;37.77;;;;;;;1.68;79.12;100510.47;4934923;29;20032;-75
2021/01/23 02:19:09;;;;;;;60.43;38.33;;;;;;;1.61;79.07;100494.75;4923753;29;20027;-76
2021/01/23 02:22:02;;;;;;;55.80;37.40;;;;;;;1.82;78.91;100503.81;4950308;28;20123;-75
2021/01/23 02:24:30;;;;;;;61.00;39.30;;;;;;;1.75;78.44;100466.88;4934654;29;20039;-79
2021/01/23 02:26:58;;;;;;;59.73;39.60;;;;;;;2.01;78.66;100499.28;4935861;29;20066;-75
2021/01/23 02:29:36;;;;;;;55.57;37.77;;;;;;;2.16;77.65;100496.09;4934478;28;20434;-71
2021/01/23 02:32:02;;;;;;;56.70;37.83;;;;;;;2.23;76.98;100496.63;4935674;29;20059;-76
2021/01/23 02:34:29;;;;;;;58.23;38.70;;;;;;;2.13;76.77;100503.50;4935946;29;20131;-69
2021/01/23 02:36:57;;;;;;;58.20;37.17;;;;;;;2.18;77.12;100494.50;4935424;28;20043;-71
2021/01/23 02:39:23;;;;;;;59.83;40.77;;;;;;;2.16;76.77;100475.72;4935934;29;20032;-70
2021/01/23 02:41:51;;;;;;;59.63;40.70;;;;;;;2.32;76.65;100491.28;4935959;29;20082;-71
2021/01/23 02:44:16;;;;;;;59.70;40.63;;;;;;;2.14;76.69;100449.22;4935573;29;20031;-69
2021/01/23 02:46:42;;;;;;;63.47;40.30;;;;;;;2.41;76.47;100474.06;4950347;29;20505;-68
2021/01/23 02:49:08;;;;;;;62.03;42.40;;;;;;;1.91;76.68;100436.63;4938011;29;20046;-73
2021/01/23 02:51:46;;;;;;;56.87;38.93;;;;;;;1.82;78.30;100481.81;4935101;29;20122;-73
2021/01/23 02:54:18;;;;;;;57.77;38.83;;;;;;;2.00;78.06;100489.00;4935690;29;20032;-68
2021/01/23 02:56:45;;;;;;;59.57;39.03;;;;;;;2.02;77.90;100492.53;4935389;29;20078;-71
2021/01/23 02:59:13;;;;;;;69.07;43.17;;;;;;;2.04;77.80;100484.22;4935222;29;20471;-71
2021/01/23 03:01:43;;;;;;;66.03;41.43;;;;;;;1.94;78.16;100477.63;4934727;29;20095;-71
2021/01/23 03:04:09;;;;;;;69.78;40.42;;;;;;;2.02;78.09;100485.78;4935244;29;20114;-71
2021/01/23 03:06:37;;;;;;;145.83;85.23;;;;;;;2.05;78.08;100486.00;4934787;28;20031;-69
2021/01/23 03:09:20;;;;;;;81.17;52.70;;;;;;;2.03;78.01;100491.75;4935221;29;20024;-69
2021/01/23 03:11:45;;;;;;;100.27;48.47;;;;;;;1.94;77.61;100461.44;4935025;29;20032;-72
2021/01/23 03:14:11;;;;;;;67.43;41.13;;;;;;;1.99;77.87;100477.91;4934467;29;20074;-70
2021/01/23 03:16:37;;;;;;;64.23;38.37;;;;;;;1.91;78.15;100459.56;4933113;29;20067;-72
2021/01/23 03:19:04;;;;;;;55.43;36.33;;;;;;;2.04;78.62;100474.03;4934897;29;20389;-72
2021/01/23 03:21:30;;;;;;;57.50;36.37;;;;;;;2.00;78.54;100471.19;4934943;29;20028;-70
2021/01/23 03:23:55;;;;;;;60.93;37.40;;;;;;;1.99;80.00;100469.41;4935032;29;20024;-69
2021/01/23 03:26:21;;;;;;;183.43;82.97;;;;;;;2.01;82.30;100473.81;4934807;29;20046;-67
2021/01/23 03:28:47;;;;;;;179.90;89.33;;;;;;;2.05;82.30;100472.38;4934757;29;20036;-69
2021/01/23 03:31:12;;;;;;;100.90;55.23;;;;;;;1.91;81.94;100421.38;4934533;29;20031;-70
2021/01/23 03:33:38;;;;;;;89.20;51.33;;;;;;;2.26;82.20;100447.53;4934759;29;20090;-70
2021/01/23 03:36:04;;;;;;;109.87;60.40;;;;;;;2.33;80.35;100433.56;4934648;29;20491;-71
2021/01/23 03:38:29;;;;;;;165.77;81.93;;;;;;;2.45;80.09;100444.59;4934321;29;20415;-67
2021/01/23 03:40:54;;;;;;;136.43;69.23;;;;;;;2.39;80.38;100429.78;4934686;29;20118;-70
2021/01/23 03:43:20;;;;;;;89.63;51.97;;;;;;;2.16;82.56;100432.41;4934271;29;20056;-69
2021/01/23 03:45:45;;;;;;;100.80;57.40;;;;;;;2.27;82.10;100426.41;4934470;29;20032;-70
2021/01/23 03:48:11;;;;;;;88.07;50.17;;;;;;;2.24;81.59;100423.63;4934493;29;20038;-68
2021/01/23 03:50:36;;;;;;;80.23;48.10;;;;;;;2.19;81.81;100453.84;4934009;29;20035;-69
2021/01/23 03:53:02;;;;;;;80.63;47.67;;;;;;;1.99;82.52;100424.44;4934413;29;20402;-69
2021/01/23 03:55:27;;;;;;;66.13;41.17;;;;;;;1.49;83.46;100322.50;4934082;29;20478;-69
2021/01/23 03:57:52;;;;;;;64.20;41.37;;;;;;;2.25;83.90;100427.94;4934018;29;20028;-70
2021/01/23 04:00:18;;;;;;;51.50;35.93;;;;;;;2.36;84.07;100423.59;4934120;29;20024;-69
2021/01/23 04:02:44;;;;;;;51.53;32.70;;;;;;;2.19;86.13;100387.63;4934163;29;20063;-72
2021/01/23 04:05:29;;;;;;;47.07;30.93;;;;;;;2.58;89.61;100433.59;4934147;29;20027;-67
2021/01/23 04:07:55;;;;;;;49.07;34.07;;;;;;;2.67;89.27;100428.25;4950873;29;20087;-70
2021/01/23 04:10:20;;;;;;;46.50;30.63;;;;;;;2.79;88.41;100438.38;4950859;29;20039;-67
2021/01/23 04:12:46;;;;;;;47.37;32.80;;;;;;;2.65;87.73;100411.94;4950706;29;20043;-67
2021/01/23 04:15:12;;;;;;;45.67;31.13;;;;;;;2.80;87.90;100433.38;4951090;29;20030;-66
2021/01/23 04:17:37;;;;;;;44.93;30.77;;;;;;;2.73;87.89;100409.13;4934817;29;20031;-68
2021/01/23 04:20:03;;;;;;;45.83;31.97;;;;;;;2.95;87.56;100446.25;4950983;29;20066;-71
2021/01/23 04:22:29;;;;;;;44.10;30.57;;;;;;;2.90;86.50;100432.31;4950679;29;20054;-67
2021/01/23 04:24:55;;;;;;;43.23;30.50;;;;;;;2.97;83.70;100441.28;4950600;29;20070;-68
2021/01/23 04:27:20;;;;;;;42.57;28.97;;;;;;;3.07;82.71;100446.22;4950550;29;20058;-73
2021/01/23 04:29:46;;;;;;;48.87;31.50;;;;;;;2.99;81.40;100448.25;4950838;28;20031;-73
2021/01/23 04:32:12;;;;;;;53.57;34.37;;;;;;;2.83;82.08;100448.00;4954108;29;20047;-73
2021/01/23 04:34:37;;;;;;;76.53;38.60;;;;;;;2.72;81.81;100448.16;4954717;29;20027;-70
2021/01/23 04:37:03;;;;;;;75.73;40.10;;;;;;;2.57;82.31;100450.53;4954507;29;20040;-73
2021/01/23 04:39:28;;;;;;;276.27;109.77;;;;;;;2.32;83.51;100434.34;4954747;29;20047;-70
2021/01/23 04:41:54;;;;;;;149.17;72.70;;;;;;;2.20;83.02;100439.47;4954422;29;20101;-74
2021/01/23 04:44:20;;;;;;;168.17;88.43;;;;;;;2.22;83.90;100448.13;4952819;29;20041;-72
2021/01/23 04:46:46;;;;;;;102.03;58.77;;;;;;;2.19;83.57;100440.25;4952522;28;20032;-75
2021/01/23 04:49:12;;;;;;;72.27;44.97;;;;;;;2.26;83.38;100437.34;4936552;29;20199;-75
2021/01/23 04:51:37;;;;;;;69.07;40.80;;;;;;;2.23;82.72;100419.28;4937066;29;20043;-73
2021/01/23 04:54:03;;;;;;;77.27;44.87;;;;;;;2.06;82.13;100378.25;4937263;29;20110;-75
2021/01/23 04:56:28;;;;;;;141.13;77.87;;;;;;;2.45;81.46;100446.28;4936951;29;20095;-72
2021/01/23 04:58:54;;;;;;;115.73;64.73;;;;;;;2.23;81.19;100420.19;4937536;29;20043;-74
2021/01/23 05:01:19;;;;;;;93.20;55.50;;;;;;;2.31;81.23;100443.66;4937513;29;20031;-72
2021/01/23 05:03:58;;;;;;;79.30;50.20;;;;;;;2.22;81.30;100433.72;4937345;29;20043;-72
2021/01/23 05:06:25;;;;;;;68.13;43.10;;;;;;;1.98;82.12;100444.72;4937317;29;20050;-70
2021/01/23 05:08:50;;;;;;;122.10;53.10;;;;;;;1.81;82.37;100443.50;4936965;29;20047;-74
2021/01/23 05:11:16;;;;;;;79.13;42.20;;;;;;;1.83;82.49;100441.97;4937196;29;20468;-69
2021/01/23 05:14:09;;;;;;;82.50;47.13;;;;;;;1.96;82.58;100436.97;4937286;29;20431;-70
2021/01/23 05:16:34;;;;;;;58.87;40.43;;;;;;;1.94;82.76;100428.34;4936734;29;20031;-69
2021/01/23 05:19:01;;;;;;;86.47;49.87;;;;;;;2.14;83.43;100424.63;4943071;29;20025;-70
2021/01/23 05:21:28;;;;;;;93.53;52.07;;;;;;;2.11;80.68;100411.69;4936439;29;20521;-69
2021/01/23 05:24:11;;;;;;;63.37;41.13;;;;;;;2.14;80.65;100411.03;4936605;29;20020;-69
2021/01/23 05:26:38;;;;;;;76.43;45.83;;;;;;;2.19;80.35;100423.28;4966566;28;20066;-71
2021/01/23 05:29:09;;;;;;;62.20;39.37;;;;;;;2.10;80.98;100418.44;4947024;28;20031;-74
2021/01/23 05:31:35;;;;;;;57.03;36.63;;;;;;;2.11;80.89;100416.78;4937306;29;20093;-73
2021/01/23 05:34:01;;;;;;;56.10;36.30;;;;;;;2.02;81.26;100416.13;4935152;28;20464;-74
2021/01/23 05:36:26;;;;;;;94.90;46.40;;;;;;;1.94;81.42;100430.88;4937062;29;20115;-72
2021/01/23 05:38:52;;;;;;;52.27;34.70;;;;;;;1.93;82.22;100435.09;4937348;28;20044;-71
2021/01/23 05:41:18;;;;;;;66.90;39.80;;;;;;;2.00;81.94;100423.69;4937178;29;20042;-73
2021/01/23 05:43:51;;;;;;;48.10;33.27;;;;;;;1.68;82.51;100375.59;4936989;29;20032;-71
2021/01/23 05:46:30;;;;;;;46.10;31.83;;;;;;;1.96;82.38;100421.69;4936751;28;20032;-71
2021/01/23 05:48:56;;;;;;;56.13;36.72;;;;;;;2.04;82.62;100412.91;4936881;29;20478;-72
2021/01/23 05:51:23;;;;;;;70.53;39.77;;;;;;;2.19;82.34;100417.31;4936910;28;20027;-71
2021/01/23 05:53:49;;;;;;;146.43;59.43;;;;;;;2.30;80.92;100418.06;4936798;29;20110;-74
2021/01/23 05:56:15;;;;;;;91.93;48.50;;;;;;;2.36;80.36;100421.06;4937029;29;20111;-72
2021/01/23 05:58:42;;;;;;;71.63;41.63;;;;;;;2.40;80.66;100415.38;4936813;28;20037;-73
2021/01/23 06:01:11;;;;;;;61.27;37.17;;;;;;;2.41;80.73;100415.47;4936726;29;20027;-71
2021/01/23 06:03:48;;;;;;;58.00;36.88;;;;;;;2.32;80.91;100414.84;4936902;29;20024;-74
2021/01/23 06:06:14;;;;;;;59.03;36.47;;;;;;;2.05;81.35;100368.84;4936598;29;20042;-72
2021/01/23 06:08:41;;;;;;;61.63;40.23;;;;;;;2.28;81.88;100411.97;4936451;29;20398;-72
2021/01/23 06:11:29;;;;;;;61.47;39.63;;;;;;;2.34;82.86;100413.28;4936699;29;20079;-72
2021/01/23 06:13:56;;;;;;;57.00;37.87;;;;;;;2.19;83.56;100410.56;4936646;29;20083;-72
2021/01/23 06:16:42;;;;;;;56.77;34.70;;;;;;;2.05;86.37;100373.06;4950547;29;20043;-72
2021/01/23 06:19:30;;;;;;;43.63;28.43;;;;;;;2.32;89.64;100398.66;4936601;28;20035;-76
2021/01/23 06:21:56;;;;;;;37.63;24.60;;;;;;;2.23;92.36;100358.16;4936314;29;20028;-71
2021/01/23 06:24:30;;;;;;;35.60;22.93;;;;;;;2.71;95.03;100399.63;4935111;29;20450;-71
2021/01/23 06:26:57;;;;;;;41.13;22.93;;;;;;;2.91;96.73;100411.16;4936259;29;20031;-72
2021/01/23 06:29:42;;;;;;;153.67;122.60;;;;;;;3.11;97.60;100406.50;4936208;29;20032;-72
2021/01/23 06:32:13;;;;;;;53.57;38.50;;;;;;;3.22;97.66;100385.13;4935969;29;20059;-77
2021/01/23 06:34:50;;;;;;;52.60;35.93;;;;;;;3.28;97.25;100376.97;4936290;29;20028;-73
2021/01/23 06:37:19;;;;;;;59.90;40.93;;;;;;;3.31;95.69;100354.22;4936159;29;20110;-72
2021/01/23 06:39:56;;;;;;;73.43;43.47;;;;;;;3.57;94.86;100386.50;4936153;29;20044;-76
2021/01/23 06:42:25;;;;;;;64.20;41.10;;;;;;;3.65;93.39;100385.31;4935874;29;20035;-71
2021/01/23 06:44:51;;;;;;;69.72;43.13;;;;;;;3.70;92.66;100386.50;4935750;29;20079;-74
2021/01/23 06:47:17;;;;;;;68.33;43.50;;;;;;;3.70;91.53;100391.59;4935840;29;20031;-73
2021/01/23 06:49:43;;;;;;;93.67;50.90;;;;;;;3.74;92.15;100372.25;4935836;29;20032;-71
2021/01/23 06:52:09;;;;;;;69.10;42.63;;;;;;;3.37;90.48;100319.75;4951568;29;20390;-72
2021/01/23 06:54:35;;;;;;;75.27;43.67;;;;;;;3.76;89.01;100396.19;4984696;28;20129;-74
2021/01/23 06:57:03;;;;;;;79.13;40.47;;;;;;;3.75;89.78;100399.56;4954984;28;20082;-75
2021/01/23 06:59:31;;;;;;;44.83;32.03;;;;;;;3.73;90.04;100396.88;4954926;28;20027;-73
2021/01/23 07:02:11;;;;;;;49.67;31.37;;;;;;;3.79;89.54;100400.59;4954881;28;20027;-71
2021/01/23 07:04:48;;;;;;;44.38;30.50;;;;;;;3.61;89.39;100357.81;4954825;28;20046;-78
2021/01/23 07:07:15;;;;;;;48.83;33.03;;;;;;;3.97;88.13;100411.97;4954570;28;20405;-73
2021/01/23 07:09:43;;;;;;;84.93;52.67;;;;;;;4.00;87.38;100401.97;4954600;28;20063;-73
2021/01/23 07:12:09;;;;;;;68.00;45.20;;;;;;;3.91;87.71;100375.84;4969464;28;20046;-73
2021/01/23 07:14:34;;;;;;;60.50;40.47;;;;;;;4.26;87.30;100399.25;4954436;28;20474;-73
2021/01/23 07:17:00;;;;;;;52.43;38.50;;;;;;;4.46;86.90;100400.44;4954391;29;20031;-74
2021/01/23 07:19:26;;;;;;;48.60;35.95;;;;;;;4.61;87.64;100398.81;4954440;28;20035;-72
2021/01/23 07:21:53;;;;;;;51.13;36.28;;;;;;;4.74;88.32;100407.22;4954561;28;20035;-77
2021/01/23 07:24:19;;;;;;;59.13;35.50;;;;;;;4.87;88.02;100412.25;4954114;28;20062;-72
2021/01/23 07:26:45;;;;;;;74.15;38.85;;;;;;;5.03;87.17;100406.38;4954588;28;20059;-72
2021/01/23 07:29:11;;;;;;;100.28;46.83;;;;;;;4.86;86.55;100356.81;4954290;28;20493;-71
2021/01/23 07:31:36;;;;;;;91.03;42.58;;;;;;;5.28;86.63;100398.44;4954098;28;20497;-72
2021/01/23 07:34:10;;;;;;;58.63;34.95;;;;;;;5.28;86.20;100384.75;4948866;28;20067;-73
2021/01/23 07:36:39;;;;;;;57.72;34.63;;;;;;;5.46;86.91;100390.03;4942530;28;20470;-71
2021/01/23 07:39:12;;;;;;;48.70;38.13;;;;;;;5.49;86.57;100390.19;4940204;29;20550;-72
2021/01/23 07:41:55;;;;;;;40.20;28.67;;;;;;;5.60;86.82;100396.78;4945235;28;20453;-72
2021/01/23 07:44:24;;;;;;;43.80;33.33;;;;;;;5.48;87.21;100365.38;4953970;28;20031;-74
2021/01/23 07:46:50;;;;;;;44.22;31.98;;;;;;;5.71;87.34;100393.94;4946363;28;20031;-72
2021/01/23 07:49:27;;;;;;;41.53;30.08;;;;;;;5.80;88.38;100392.78;4936223;29;20111;-73
2021/01/23 07:52:06;;;;;;;43.83;30.63;;;;;;;5.87;89.37;100387.97;4972804;28;20119;-74
2021/01/23 07:54:32;;;;;;;68.45;52.83;;;;;;;5.84;88.61;100388.69;4942848;28;20032;-75
2021/01/23 07:56:58;;;;;;;52.03;35.25;;;;;;;5.82;88.76;100375.81;4949463;28;20034;-74
2021/01/23 07:59:42;;;;;;;57.08;37.72;;;;;;;5.83;88.45;100375.03;4944241;29;20106;-73
2021/01/23 08:02:08;;;;;;;60.42;38.30;;;;;;;5.83;87.70;100376.69;4942481;29;20024;-72
2021/01/23 08:04:35;;;;;;;148.15;66.88;;;;;;;5.90;87.38;100373.66;4943950;28;20035;-72
2021/01/23 08:07:17;;;;;;;89.70;51.70;;;;;;;5.86;87.72;100361.50;4942569;29;20074;-73
2021/01/23 08:09:43;;;;;;;420.23;159.68;;;;;;;5.95;87.63;100372.22;4943109;29;20482;-75
2021/01/23 08:12:18;;;;;;;73.60;43.13;;;;;;;6.13;88.32;100372.38;4943819;28;20094;-75
2021/01/23 08:14:55;;;;;;;67.13;41.78;;;;;;;6.10;88.95;100336.31;4975384;28;20094;-72
2021/01/23 08:17:35;;;;;;;120.80;71.57;;;;;;;6.26;88.85;100358.50;4942611;28;20023;-76
2021/01/23 08:20:00;;;;;;;88.38;50.78;;;;;;;6.35;88.88;100364.94;4944053;29;20468;-71
2021/01/23 08:22:26;;;;;;;107.25;65.55;;;;;;;6.50;89.88;100365.72;4936974;29;20035;-75
2021/01/23 08:24:51;;;;;;;92.45;62.35;;;;;;;6.74;91.23;100371.25;4939018;29;20496;-78
2021/01/23 08:27:20;;;;;;;84.82;50.50;;;;;;;6.90;90.96;100366.88;4953664;28;20478;-73
2021/01/23 08:29:47;;;;;;;60.53;38.80;;;;;;;6.97;90.85;100372.38;4953510;28;20029;-70
2021/01/23 08:32:13;;;;;;;49.22;33.42;;;;;;;7.13;92.53;100363.75;4953609;28;20098;-69
2021/01/23 08:34:39;;;;;;;62.42;43.10;;;;;;;7.26;91.80;100366.91;4953587;28;20035;-68
2021/01/23 08:37:05;;;;;;;41.65;28.27;;;;;;;7.46;92.55;100357.59;4944439;28;20034;-72
2021/01/23 08:39:47;;;;;;;40.55;28.65;;;;;;;7.65;92.49;100354.22;4938825;28;20507;-69
2021/01/23 08:42:13;;;;;;;42.63;28.55;;;;;;;7.75;92.51;100355.50;4935381;29;20043;-69
2021/01/23 08:44:38;;;;;;;40.35;26.48;;;;;;;7.85;92.68;100341.41;4934272;29;20032;-67
2021/01/23 08:47:04;;;;;;;52.13;33.97;;;;;;;7.99;92.53;100339.44;4939147;29;20422;-73
2021/01/23 08:49:31;;;;;;;60.75;37.25;;;;;;;8.16;92.33;100343.69;4932908;29;20483;-70
2021/01/23 08:51:57;;;;;;;39.78;26.95;;;;;;;8.29;91.79;100344.19;4934081;29;20032;-70
2021/01/23 08:54:22;;;;;;;43.10;26.50;;;;;;;8.33;91.83;100317.81;4934168;29;20075;-70
2021/01/23 08:56:48;;;;;;;29.77;18.90;;;;;;;8.55;91.74;100335.09;4934130;29;20036;-70
2021/01/23 08:59:14;;;;;;;26.38;16.63;;;;;;;8.67;92.10;100332.16;4949034;28;20127;-70
2021/01/23 09:01:39;;;;;;;24.27;14.20;;;;;;;8.86;92.04;100329.56;4933960;29;20039;-70
2021/01/23 09:04:05;;;;;;;16.35;11.00;;;;;;;9.17;91.53;100332.50;4934183;29;20552;-70
2021/01/23 09:06:30;;;;;;;17.77;11.30;;;;;;;9.36;89.86;100334.13;4933788;29;20035;-70
2021/01/23 09:08:56;;;;;;;14.10;10.48;;;;;;;9.50;88.85;100321.78;4934186;29;20710;-70
2021/01/23 09:11:22;;;;;;;15.10;9.68;;;;;;;9.77;87.71;100324.53;4933975;29;20406;-70
2021/01/23 09:13:48;;;;;;;14.38;8.02;;;;;;;9.91;86.49;100316.44;4933761;28;20055;-71
2021/01/23 09:16:14;;;;;;;12.95;7.82;;;;;;;10.24;84.97;100321.94;4932816;29;20063;-71
2021/01/23 09:18:40;;;;;;;11.20;7.15;;;;;;;10.45;83.27;100311.50;4937571;29;20032;-71
2021/01/23 09:21:06;;;;;;;11.65;6.30;;;;;;;10.61;82.55;100310.34;4937546;29;20039;-71
2021/01/23 09:23:32;;;;;;;10.95;6.63;;;;;;;10.50;81.27;100266.13;4937528;29;20023;-70
2021/01/23 09:26:02;;;;;;;11.88;7.18;;;;;;;10.58;81.64;100268.06;4937232;29;20027;-70
2021/01/23 09:28:28;;;;;;;11.48;6.30;;;;;;;10.67;81.37;100294.19;4937256;29;20083;-70
2021/01/23 09:30:54;;;;;;;10.57;6.32;;;;;;;10.85;81.43;100312.00;4937248;28;20031;-71
2021/01/23 09:33:20;;;;;;;10.88;6.00;;;;;;;10.90;80.95;100291.50;4937531;29;20036;-71
2021/01/23 09:35:46;;;;;;;11.48;6.93;;;;;;;10.77;80.31;100264.41;4939318;29;20036;-70
2021/01/23 09:38:11;;;;;;;12.27;6.38;;;;;;;11.05;79.68;100304.91;4945715;29;20052;-70
2021/01/23 09:40:37;;;;;;;11.75;7.25;;;;;;;11.03;80.03;100292.75;4936839;28;20512;-70
2021/01/23 09:43:02;;;;;;;11.30;6.70;;;;;;;11.09;79.27;100291.28;4937230;29;20075;-70
2021/01/23 09:45:28;;;;;;;9.43;5.28;;;;;;;11.15;78.81;100286.31;4936865;29;20070;-70
2021/01/23 09:47:55;;;;;;;12.65;6.10;;;;;;;11.23;78.13;100277.91;4939017;29;20035;-70
2021/01/23 09:50:22;;;;;;;7.68;5.15;;;;;;;11.19;77.09;100233.03;4955951;28;20035;-71
2021/01/23 09:52:48;;;;;;;8.48;4.65;;;;;;;11.27;75.89;100244.44;4956031;28;20035;-70
2021/01/23 09:55:14;;;;;;;7.43;4.93;;;;;;;11.59;75.29;100274.66;4970948;28;20027;-70
2021/01/23 09:57:39;;;;;;;11.00;5.88;;;;;;;11.57;75.51;100268.59;4955717;28;20496;-70
2021/01/23 10:00:06;;;;;;;13.18;6.07;;;;;;;11.67;75.18;100268.03;4956065;28;20031;-70
2021/01/23 10:02:36;;;;;;;10.65;5.40;;;;;;;11.86;74.53;100265.97;4955478;28;20106;-70
2021/01/23 10:05:03;;;;;;;10.38;5.70;;;;;;;11.93;73.82;100257.56;4955902;28;20445;-70
2021/01/23 10:07:28;;;;;;;10.48;6.03;;;;;;;11.94;73.83;100251.56;4955831;28;20031;-70
2021/01/23 10:09:54;;;;;;;12.88;4.65;;;;;;;12.17;71.90;100251.34;4955709;28;20031;-70
2021/01/23 10:12:20;;;;;;;9.95;5.40;;;;;;;12.14;72.12;100250.41;4969534;28;20529;-70
2021/01/23 10:14:45;;;;;;;11.55;5.85;;;;;;;12.22;71.99;100252.31;4955443;28;20446;-70
2021/01/23 10:17:13;;;;;;;7.28;3.80;;;;;;;12.28;70.71;100242.13;4955256;28;20024;-70
2021/01/23 10:19:39;;;;;;;7.25;2.47;;;;;;;12.45;67.70;100248.63;4955643;28;20063;-70
2021/01/23 10:22:04;;;;;;;6.95;3.03;;;;;;;12.51;67.60;100231.50;4955681;28;20063;-71
2021/01/23 10:24:30;;;;;;;8.25;3.17;;;;;;;12.35;67.55;100204.34;4955260;28;20057;-70
2021/01/23 10:26:55;;;;;;;6.78;2.58;;;;;;;12.54;67.14;100231.59;4955212;28;20027;-70
2021/01/23 10:29:21;;;;;;;11.07;3.17;;;;;;;12.67;65.27;100218.06;4947763;28;20478;-70
2021/01/23 10:31:46;;;;;;;12.43;3.17;;;;;;;12.86;64.70;100219.41;4942560;28;20402;-69
2021/01/23 10:34:12;;;;;;;10.55;2.88;;;;;;;12.90;64.83;100215.19;4949243;29;20042;-69
2021/01/23 10:36:37;;;;;;;7.93;2.65;;;;;;;12.99;63.01;100224.88;4954725;28;20406;-69
2021/01/23 10:39:03;;;;;;;8.82;2.50;;;;;;;12.97;61.66;100217.06;4941590;28;20151;-69
2021/01/23 10:41:29;;;;;;;16.58;2.10;;;;;;;12.98;60.82;100203.25;4936235;29;20447;-70
2021/01/23 10:43:54;;;;;;;8.88;2.15;;;;;;;12.76;60.95;100170.78;4935614;29;20038;-70
2021/01/23 10:46:20;;;;;;;6.47;2.03;;;;;;;12.98;60.92;100198.06;4935366;29;20028;-70
2021/01/23 10:48:45;;;;;;;5.82;1.95;;;;;;;12.91;61.53;100203.94;4935540;29;20035;-70
2021/01/23 10:51:12;;;;;;;8.27;2.33;;;;;;;12.95;61.58;100198.03;4935453;29;20082;-70
2021/01/23 10:53:37;;;;;;;7.88;3.10;;;;;;;12.95;61.95;100187.66;4935566;29;20450;-70
2021/01/23 10:56:04;;;;;;;12.43;4.00;;;;;;;13.10;61.45;100189.72;4935639;29;20028;-70
2021/01/23 10:58:29;;;;;;;8.23;2.33;;;;;;;13.01;60.30;100158.41;4935480;29;20074;-70
2021/01/23 11:00:55;;;;;;;6.70;2.17;;;;;;;13.25;60.32;100190.03;4935163;29;20498;-70
2021/01/23 11:03:20;;;;;;;8.45;2.45;;;;;;;13.35;61.42;100180.75;4935385;29;20094;-70
2021/01/23 11:05:46;;;;;;;9.98;2.80;;;;;;;13.34;60.26;100178.13;4960222;28;20039;-70
2021/01/23 11:08:11;;;;;;;9.07;2.67;;;;;;;13.40;60.13;100176.56;4934420;29;20060;-71
2021/01/23 11:10:38;;;;;;;7.95;1.77;;;;;;;13.36;58.71;100153.97;4934894;29;20031;-70
2021/01/23 11:13:03;;;;;;;7.85;1.70;;;;;;;13.23;59.00;100139.91;4935323;29;20126;-70
2021/01/23 11:15:29;;;;;;;10.18;2.75;;;;;;;13.33;59.52;100156.50;4934819;28;20075;-70
2021/01/23 11:17:56;;;;;;;9.10;2.42;;;;;;;13.40;57.78;100154.94;4937144;29;20054;-69
2021/01/23 11:20:21;;;;;;;11.18;2.88;;;;;;;13.40;58.53;100166.19;4944999;29;20031;-69